sensor_id;sensor_type;location;lat;lon;timestamp;P1;durP1;ratioP1;P2;durP2;ratioP2
80732;SDS011;70130;44.534;18.678;2023-11-22T00:00:32;36.22;;;17.15;;
80732;SDS011;70130;44.534;18.678;2023-11-22T00:03:03;29.38;;;16.58;;
80732;SDS011;70130;44.534;18.678;2023-11-22T00:05:32;33.13;;;15.77;;
80732;SDS011;70130;44.534;18.678;2023-11-22T00:07:57;31.55;;;15.80;;
80732;SDS011;70130;44.534;18.678;2023-11-22T00:10:23;30.52;;;15.00;;
80732;SDS011;70130;44.534;18.678;2023-11-22T00:12:57;34.10;;;16.40;;
80732;SDS011;70130;44.534;18.678;2023-11-22T00:15:30;37.75;;;18.63;;
80732;SDS011;70130;44.534;18.678;2023-11-22T00:17:55;27.23;;;15.68;;
80732;SDS011;70130;44.534;18.678;2023-11-22T00:20:32;30.67;;;15.02;;
80732;SDS011;70130;44.534;18.678;2023-11-22T00:23:02;31.23;;;16.30;;
80732;SDS011;70130;44.534;18.678;2023-11-22T00:25:31;30.27;;;13.40;;
80732;SDS011;70130;44.534;18.678;2023-11-22T00:28:10;25.08;;;14.45;;
80732;SDS011;70130;44.534;18.678;2023-11-22T00:30:39;30.42;;;14.85;;
80732;SDS011;70130;44.534;18.678;2023-11-22T00:33:11;23.55;;;13.07;;
80732;SDS011;70130;44.534;18.678;2023-11-22T00:35:39;24.70;;;12.65;;
80732;SDS011;70130;44.534;18.678;2023-11-22T00:38:05;24.10;;;12.18;;
80732;SDS011;70130;44.534;18.678;2023-11-22T00:40:34;25.30;;;13.43;;
80732;SDS011;70130;44.534;18.678;2023-11-22T00:43:03;25.48;;;14.18;;
80732;SDS011;70130;44.534;18.678;2023-11-22T00:45:29;25.65;;;13.20;;
80732;SDS011;70130;44.534;18.678;2023-11-22T00:48:05;22.65;;;11.27;;
80732;SDS011;70130;44.534;18.678;2023-11-22T00:50:34;20.77;;;11.48;;
80732;SDS011;70130;44.534;18.678;2023-11-22T00:53:18;26.35;;;12.25;;
80732;SDS011;70130;44.534;18.678;2023-11-22T00:55:47;19.80;;;9.93;;
80732;SDS011;70130;44.534;18.678;2023-11-22T00:58:15;18.05;;;9.75;;
80732;SDS011;70130;44.534;18.678;2023-11-22T01:00:41;19.00;;;9.32;;
80732;SDS011;70130;44.534;18.678;2023-11-22T01:03:10;15.77;;;9.02;;
80732;SDS011;70130;44.534;18.678;2023-11-22T01:05:39;18.05;;;9.80;;
80732;SDS011;70130;44.534;18.678;2023-11-22T01:08:17;19.15;;;9.88;;
80732;SDS011;70130;44.534;18.678;2023-11-22T01:10:47;17.30;;;9.70;;
80732;SDS011;70130;44.534;18.678;2023-11-22T01:13:15;17.88;;;9.10;;
80732;SDS011;70130;44.534;18.678;2023-11-22T01:15:44;14.18;;;7.90;;
80732;SDS011;70130;44.534;18.678;2023-11-22T01:18:10;16.00;;;8.82;;
80732;SDS011;70130;44.534;18.678;2023-11-22T01:20:39;15.65;;;8.40;;
80732;SDS011;70130;44.534;18.678;2023-11-22T01:23:07;12.27;;;7.78;;
80732;SDS011;70130;44.534;18.678;2023-11-22T01:25:33;14.73;;;7.80;;
80732;SDS011;70130;44.534;18.678;2023-11-22T01:28:02;13.98;;;8.60;;
80732;SDS011;70130;44.534;18.678;2023-11-22T01:30:31;29.83;;;14.05;;
80732;SDS011;70130;44.534;18.678;2023-11-22T01:33:00;25.63;;;12.68;;
80732;SDS011;70130;44.534;18.678;2023-11-22T01:35:25;24.85;;;12.13;;
80732;SDS011;70130;44.534;18.678;2023-11-22T01:37:51;16.67;;;10.15;;
80732;SDS011;70130;44.534;18.678;2023-11-22T01:40:17;16.08;;;8.13;;
80732;SDS011;70130;44.534;18.678;2023-11-22T01:42:47;10.95;;;6.82;;
80732;SDS011;70130;44.534;18.678;2023-11-22T01:45:16;23.75;;;11.23;;
80732;SDS011;70130;44.534;18.678;2023-11-22T01:47:44;34.10;;;13.98;;
80732;SDS011;70130;44.534;18.678;2023-11-22T01:50:13;31.52;;;14.52;;
80732;SDS011;70130;44.534;18.678;2023-11-22T01:52:42;20.50;;;9.95;;
80732;SDS011;70130;44.534;18.678;2023-11-22T01:55:12;24.40;;;13.10;;
80732;SDS011;70130;44.534;18.678;2023-11-22T01:57:42;25.92;;;12.75;;
80732;SDS011;70130;44.534;18.678;2023-11-22T02:00:11;22.20;;;12.25;;
80732;SDS011;70130;44.534;18.678;2023-11-22T02:02:40;21.70;;;12.30;;
80732;SDS011;70130;44.534;18.678;2023-11-22T02:05:16;21.52;;;12.73;;
80732;SDS011;70130;44.534;18.678;2023-11-22T02:07:46;24.83;;;12.43;;
80732;SDS011;70130;44.534;18.678;2023-11-22T02:10:15;25.17;;;11.68;;
80732;SDS011;70130;44.534;18.678;2023-11-22T02:12:44;26.52;;;13.90;;
80732;SDS011;70130;44.534;18.678;2023-11-22T02:15:13;27.35;;;13.05;;
80732;SDS011;70130;44.534;18.678;2023-11-22T02:17:41;25.08;;;13.27;;
80732;SDS011;70130;44.534;18.678;2023-11-22T02:20:10;27.00;;;15.07;;
80732;SDS011;70130;44.534;18.678;2023-11-22T02:22:45;24.45;;;13.13;;
80732;SDS011;70130;44.534;18.678;2023-11-22T02:25:15;26.02;;;13.32;;
80732;SDS011;70130;44.534;18.678;2023-11-22T02:27:44;22.85;;;12.70;;
80732;SDS011;70130;44.534;18.678;2023-11-22T02:30:12;30.25;;;13.77;;
80732;SDS011;70130;44.534;18.678;2023-11-22T02:32:41;30.23;;;15.23;;
80732;SDS011;70130;44.534;18.678;2023-11-22T02:35:08;26.00;;;13.77;;
80732;SDS011;70130;44.534;18.678;2023-11-22T02:37:34;33.30;;;14.90;;
80732;SDS011;70130;44.534;18.678;2023-11-22T02:40:09;26.95;;;14.13;;
80732;SDS011;70130;44.534;18.678;2023-11-22T02:42:39;29.38;;;14.38;;
80732;SDS011;70130;44.534;18.678;2023-11-22T02:45:08;28.83;;;13.40;;
80732;SDS011;70130;44.534;18.678;2023-11-22T02:47:37;25.83;;;14.68;;
80732;SDS011;70130;44.534;18.678;2023-11-22T02:50:06;25.05;;;13.90;;
80732;SDS011;70130;44.534;18.678;2023-11-22T02:52:35;24.05;;;12.70;;
80732;SDS011;70130;44.534;18.678;2023-11-22T02:55:04;26.85;;;14.35;;
80732;SDS011;70130;44.534;18.678;2023-11-22T02:57:33;27.00;;;13.82;;
80732;SDS011;70130;44.534;18.678;2023-11-22T03:00:02;29.27;;;15.38;;
80732;SDS011;70130;44.534;18.678;2023-11-22T03:02:43;27.42;;;15.23;;
80732;SDS011;70130;44.534;18.678;2023-11-22T03:07:55;15.65;;;8.30;;
80732;SDS011;70130;44.534;18.678;2023-11-22T03:10:22;12.45;;;7.72;;
80732;SDS011;70130;44.534;18.678;2023-11-22T03:12:59;15.27;;;7.85;;
80732;SDS011;70130;44.534;18.678;2023-11-22T03:15:35;13.80;;;7.68;;
80732;SDS011;70130;44.534;18.678;2023-11-22T03:18:01;11.13;;;6.55;;
80732;SDS011;70130;44.534;18.678;2023-11-22T03:20:31;10.35;;;6.78;;
80732;SDS011;70130;44.534;18.678;2023-11-22T03:23:01;16.85;;;7.80;;
80732;SDS011;70130;44.534;18.678;2023-11-22T03:25:30;10.10;;;6.65;;
80732;SDS011;70130;44.534;18.678;2023-11-22T03:27:59;12.38;;;6.72;;
80732;SDS011;70130;44.534;18.678;2023-11-22T03:30:27;13.32;;;8.27;;
80732;SDS011;70130;44.534;18.678;2023-11-22T03:32:56;13.80;;;7.45;;
80732;SDS011;70130;44.534;18.678;2023-11-22T03:35:24;15.15;;;8.85;;
80732;SDS011;70130;44.534;18.678;2023-11-22T03:37:50;12.77;;;7.57;;
80732;SDS011;70130;44.534;18.678;2023-11-22T03:40:16;14.90;;;8.00;;
80732;SDS011;70130;44.534;18.678;2023-11-22T03:45:35;17.88;;;9.43;;
80732;SDS011;70130;44.534;18.678;2023-11-22T03:48:03;25.00;;;12.50;;
80732;SDS011;70130;44.534;18.678;2023-11-22T03:50:32;13.75;;;7.57;;
80732;SDS011;70130;44.534;18.678;2023-11-22T03:53:00;12.23;;;8.25;;
80732;SDS011;70130;44.534;18.678;2023-11-22T03:58:17;13.50;;;7.57;;
80732;SDS011;70130;44.534;18.678;2023-11-22T04:00:47;15.32;;;7.85;;
80732;SDS011;70130;44.534;18.678;2023-11-22T04:03:15;13.07;;;8.77;;
80732;SDS011;70130;44.534;18.678;2023-11-22T04:05:41;16.60;;;9.30;;
80732;SDS011;70130;44.534;18.678;2023-11-22T04:08:16;15.50;;;9.02;;
80732;SDS011;70130;44.534;18.678;2023-11-22T04:10:44;14.43;;;8.48;;
80732;SDS011;70130;44.534;18.678;2023-11-22T04:13:13;14.35;;;8.68;;
80732;SDS011;70130;44.534;18.678;2023-11-22T04:18:45;16.15;;;8.63;;
80732;SDS011;70130;44.534;18.678;2023-11-22T04:26:26;17.02;;;10.13;;
80732;SDS011;70130;44.534;18.678;2023-11-22T04:28:55;18.02;;;10.48;;
80732;SDS011;70130;44.534;18.678;2023-11-22T04:34:08;15.73;;;9.07;;
80732;SDS011;70130;44.534;18.678;2023-11-22T04:36:37;16.73;;;9.35;;
80732;SDS011;70130;44.534;18.678;2023-11-22T04:39:06;18.60;;;10.35;;
80732;SDS011;70130;44.534;18.678;2023-11-22T04:41:35;14.57;;;8.00;;
80732;SDS011;70130;44.534;18.678;2023-11-22T04:44:07;15.65;;;8.30;;
80732;SDS011;70130;44.534;18.678;2023-11-22T04:46:35;15.43;;;8.20;;
80732;SDS011;70130;44.534;18.678;2023-11-22T04:51:48;12.95;;;8.15;;
80732;SDS011;70130;44.534;18.678;2023-11-22T04:54:18;17.20;;;9.68;;
80732;SDS011;70130;44.534;18.678;2023-11-22T04:56:46;14.95;;;8.93;;
80732;SDS011;70130;44.534;18.678;2023-11-22T04:59:12;16.55;;;9.45;;
80732;SDS011;70130;44.534;18.678;2023-11-22T05:01:41;18.60;;;10.80;;
80732;SDS011;70130;44.534;18.678;2023-11-22T05:04:12;18.95;;;10.68;;
80732;SDS011;70130;44.534;18.678;2023-11-22T05:06:42;18.45;;;11.18;;
80732;SDS011;70130;44.534;18.678;2023-11-22T05:09:11;21.95;;;11.68;;
80732;SDS011;70130;44.534;18.678;2023-11-22T05:11:44;14.75;;;9.75;;
80732;SDS011;70130;44.534;18.678;2023-11-22T05:14:13;13.13;;;8.32;;
80732;SDS011;70130;44.534;18.678;2023-11-22T05:16:39;16.38;;;10.07;;
80732;SDS011;70130;44.534;18.678;2023-11-22T05:19:08;17.75;;;11.57;;
80732;SDS011;70130;44.534;18.678;2023-11-22T05:21:33;18.38;;;10.68;;
80732;SDS011;70130;44.534;18.678;2023-11-22T05:23:59;18.38;;;11.02;;
80732;SDS011;70130;44.534;18.678;2023-11-22T05:26:37;21.02;;;11.52;;
80732;SDS011;70130;44.534;18.678;2023-11-22T05:29:06;18.63;;;10.98;;
80732;SDS011;70130;44.534;18.678;2023-11-22T05:31:31;19.52;;;10.63;;
80732;SDS011;70130;44.534;18.678;2023-11-22T05:34:09;18.58;;;9.85;;
80732;SDS011;70130;44.534;18.678;2023-11-22T05:36:40;14.88;;;9.20;;
80732;SDS011;70130;44.534;18.678;2023-11-22T05:39:24;15.82;;;9.82;;
80732;SDS011;70130;44.534;18.678;2023-11-22T05:41:53;19.25;;;10.57;;
80732;SDS011;70130;44.534;18.678;2023-11-22T05:44:19;16.88;;;9.40;;
80732;SDS011;70130;44.534;18.678;2023-11-22T05:46:51;14.25;;;9.02;;
80732;SDS011;70130;44.534;18.678;2023-11-22T05:49:19;19.77;;;12.50;;
80732;SDS011;70130;44.534;18.678;2023-11-22T05:51:45;17.42;;;9.90;;
80732;SDS011;70130;44.534;18.678;2023-11-22T05:54:11;14.55;;;8.68;;
80732;SDS011;70130;44.534;18.678;2023-11-22T05:56:40;14.32;;;7.75;;
80732;SDS011;70130;44.534;18.678;2023-11-22T05:59:06;21.33;;;11.40;;
80732;SDS011;70130;44.534;18.678;2023-11-22T06:01:31;44.80;;;20.05;;
80732;SDS011;70130;44.534;18.678;2023-11-22T06:04:03;70.68;;;32.08;;
80732;SDS011;70130;44.534;18.678;2023-11-22T06:06:32;65.18;;;30.77;;
80732;SDS011;70130;44.534;18.678;2023-11-22T06:08:57;39.33;;;19.63;;
80732;SDS011;70130;44.534;18.678;2023-11-22T06:11:35;29.65;;;14.85;;
80732;SDS011;70130;44.534;18.678;2023-11-22T06:14:07;13.43;;;9.05;;
80732;SDS011;70130;44.534;18.678;2023-11-22T06:16:39;14.73;;;8.63;;
80732;SDS011;70130;44.534;18.678;2023-11-22T06:19:04;14.32;;;9.10;;
80732;SDS011;70130;44.534;18.678;2023-11-22T06:21:33;29.08;;;16.60;;
80732;SDS011;70130;44.534;18.678;2023-11-22T06:23:59;32.58;;;18.75;;
80732;SDS011;70130;44.534;18.678;2023-11-22T06:26:25;26.55;;;16.35;;
80732;SDS011;70130;44.534;18.678;2023-11-22T06:28:51;22.27;;;12.77;;
80732;SDS011;70130;44.534;18.678;2023-11-22T06:31:34;30.98;;;16.65;;
80732;SDS011;70130;44.534;18.678;2023-11-22T06:34:18;29.23;;;15.95;;
80732;SDS011;70130;44.534;18.678;2023-11-22T06:36:50;30.25;;;16.17;;
80732;SDS011;70130;44.534;18.678;2023-11-22T06:39:19;28.35;;;14.38;;
80732;SDS011;70130;44.534;18.678;2023-11-22T06:41:45;25.50;;;14.55;;
80732;SDS011;70130;44.534;18.678;2023-11-22T06:44:23;26.77;;;15.25;;
80732;SDS011;70130;44.534;18.678;2023-11-22T06:46:49;107.53;;;53.90;;
80732;SDS011;70130;44.534;18.678;2023-11-22T06:49:14;49.90;;;26.13;;
80732;SDS011;70130;44.534;18.678;2023-11-22T06:54:59;36.15;;;18.42;;
80732;SDS011;70130;44.534;18.678;2023-11-22T06:57:25;28.80;;;14.57;;
80732;SDS011;70130;44.534;18.678;2023-11-22T06:59:57;35.88;;;18.00;;
80732;SDS011;70130;44.534;18.678;2023-11-22T07:02:23;26.63;;;14.57;;
80732;SDS011;70130;44.534;18.678;2023-11-22T07:05:02;32.40;;;16.33;;
80732;SDS011;70130;44.534;18.678;2023-11-22T07:07:47;15.52;;;9.15;;
80732;SDS011;70130;44.534;18.678;2023-11-22T07:10:14;20.52;;;11.43;;
80732;SDS011;70130;44.534;18.678;2023-11-22T07:12:40;25.50;;;14.77;;
80732;SDS011;70130;44.534;18.678;2023-11-22T07:15:08;29.67;;;16.48;;
80732;SDS011;70130;44.534;18.678;2023-11-22T07:17:35;36.58;;;19.35;;
80732;SDS011;70130;44.534;18.678;2023-11-22T07:20:01;42.72;;;24.30;;
80732;SDS011;70130;44.534;18.678;2023-11-22T07:22:27;30.33;;;16.13;;
80732;SDS011;70130;44.534;18.678;2023-11-22T07:24:55;40.17;;;20.67;;
80732;SDS011;70130;44.534;18.678;2023-11-22T07:27:25;33.08;;;17.55;;
80732;SDS011;70130;44.534;18.678;2023-11-22T07:29:51;21.05;;;10.70;;
80732;SDS011;70130;44.534;18.678;2023-11-22T07:32:17;15.52;;;9.07;;
80732;SDS011;70130;44.534;18.678;2023-11-22T07:34:45;19.17;;;10.27;;
80732;SDS011;70130;44.534;18.678;2023-11-22T07:37:11;16.42;;;9.52;;
80732;SDS011;70130;44.534;18.678;2023-11-22T07:39:38;13.13;;;8.48;;
80732;SDS011;70130;44.534;18.678;2023-11-22T07:42:05;11.93;;;7.20;;
80732;SDS011;70130;44.534;18.678;2023-11-22T07:44:34;17.27;;;9.13;;
80732;SDS011;70130;44.534;18.678;2023-11-22T07:47:03;16.08;;;9.60;;
80732;SDS011;70130;44.534;18.678;2023-11-22T07:49:33;16.02;;;8.15;;
80732;SDS011;70130;44.534;18.678;2023-11-22T07:52:02;10.38;;;5.55;;
80732;SDS011;70130;44.534;18.678;2023-11-22T07:54:28;11.35;;;5.97;;
80732;SDS011;70130;44.534;18.678;2023-11-22T07:56:55;13.45;;;7.05;;
80732;SDS011;70130;44.534;18.678;2023-11-22T07:59:21;18.13;;;8.32;;
80732;SDS011;70130;44.534;18.678;2023-11-22T08:01:47;14.27;;;7.50;;
80732;SDS011;70130;44.534;18.678;2023-11-22T08:04:16;8.48;;;6.32;;
80732;SDS011;70130;44.534;18.678;2023-11-22T08:06:42;13.63;;;7.80;;
80732;SDS011;70130;44.534;18.678;2023-11-22T08:09:08;11.80;;;6.75;;
80732;SDS011;70130;44.534;18.678;2023-11-22T08:11:34;8.80;;;5.43;;
80732;SDS011;70130;44.534;18.678;2023-11-22T08:14:02;22.08;;;9.65;;
80732;SDS011;70130;44.534;18.678;2023-11-22T08:16:28;9.15;;;6.05;;
80732;SDS011;70130;44.534;18.678;2023-11-22T08:18:54;10.18;;;6.13;;
80732;SDS011;70130;44.534;18.678;2023-11-22T08:21:20;15.23;;;6.93;;
80732;SDS011;70130;44.534;18.678;2023-11-22T08:23:46;13.15;;;7.45;;
80732;SDS011;70130;44.534;18.678;2023-11-22T08:26:15;13.98;;;7.25;;
80732;SDS011;70130;44.534;18.678;2023-11-22T08:28:41;14.48;;;8.38;;
80732;SDS011;70130;44.534;18.678;2023-11-22T08:31:07;15.02;;;7.50;;
80732;SDS011;70130;44.534;18.678;2023-11-22T08:33:39;15.93;;;10.45;;
80732;SDS011;70130;44.534;18.678;2023-11-22T08:36:05;16.45;;;9.43;;
80732;SDS011;70130;44.534;18.678;2023-11-22T08:38:33;14.32;;;8.48;;
80732;SDS011;70130;44.534;18.678;2023-11-22T08:41:05;11.43;;;6.95;;
80732;SDS011;70130;44.534;18.678;2023-11-22T08:43:31;12.13;;;6.90;;
80732;SDS011;70130;44.534;18.678;2023-11-22T08:45:58;14.80;;;8.18;;
80732;SDS011;70130;44.534;18.678;2023-11-22T08:48:24;13.00;;;7.40;;
80732;SDS011;70130;44.534;18.678;2023-11-22T08:50:50;17.00;;;6.78;;
80732;SDS011;70130;44.534;18.678;2023-11-22T08:53:18;18.95;;;9.55;;
80732;SDS011;70130;44.534;18.678;2023-11-22T08:55:45;16.17;;;8.57;;
80732;SDS011;70130;44.534;18.678;2023-11-22T08:58:12;17.35;;;9.30;;
80732;SDS011;70130;44.534;18.678;2023-11-22T09:00:38;20.90;;;9.77;;
80732;SDS011;70130;44.534;18.678;2023-11-22T09:03:04;17.75;;;8.90;;
80732;SDS011;70130;44.534;18.678;2023-11-22T09:05:30;18.08;;;9.18;;
80732;SDS011;70130;44.534;18.678;2023-11-22T09:07:55;18.08;;;8.95;;
80732;SDS011;70130;44.534;18.678;2023-11-22T09:10:21;20.77;;;9.93;;
80732;SDS011;70130;44.534;18.678;2023-11-22T09:12:47;21.80;;;11.05;;
80732;SDS011;70130;44.534;18.678;2023-11-22T09:15:13;25.00;;;11.40;;
80732;SDS011;70130;44.534;18.678;2023-11-22T09:17:42;16.23;;;9.80;;
80732;SDS011;70130;44.534;18.678;2023-11-22T09:20:09;18.23;;;9.90;;
80732;SDS011;70130;44.534;18.678;2023-11-22T09:22:41;16.00;;;8.50;;
80732;SDS011;70130;44.534;18.678;2023-11-22T09:25:16;14.75;;;7.60;;
80732;SDS011;70130;44.534;18.678;2023-11-22T09:27:44;14.20;;;7.90;;
80732;SDS011;70130;44.534;18.678;2023-11-22T09:30:16;16.33;;;8.55;;
80732;SDS011;70130;44.534;18.678;2023-11-22T09:33:07;19.15;;;8.93;;
80732;SDS011;70130;44.534;18.678;2023-11-22T09:35:37;16.50;;;9.13;;
80732;SDS011;70130;44.534;18.678;2023-11-22T09:38:05;16.30;;;8.75;;
80732;SDS011;70130;44.534;18.678;2023-11-22T09:43:01;17.80;;;8.20;;
80732;SDS011;70130;44.534;18.678;2023-11-22T09:45:34;13.13;;;7.03;;
80732;SDS011;70130;44.534;18.678;2023-11-22T09:48:02;16.75;;;8.10;;
80732;SDS011;70130;44.534;18.678;2023-11-22T09:53:07;15.63;;;7.85;;
80732;SDS011;70130;44.534;18.678;2023-11-22T09:55:38;16.80;;;7.63;;
80732;SDS011;70130;44.534;18.678;2023-11-22T09:58:08;14.27;;;6.63;;
80732;SDS011;70130;44.534;18.678;2023-11-22T10:00:38;13.48;;;7.65;;
80732;SDS011;70130;44.534;18.678;2023-11-22T10:03:06;22.15;;;9.27;;
80732;SDS011;70130;44.534;18.678;2023-11-22T10:05:32;13.73;;;8.98;;
80732;SDS011;70130;44.534;18.678;2023-11-22T10:08:00;22.35;;;11.75;;
80732;SDS011;70130;44.534;18.678;2023-11-22T10:10:26;16.70;;;8.27;;
80732;SDS011;70130;44.534;18.678;2023-11-22T10:12:55;11.60;;;6.18;;
80732;SDS011;70130;44.534;18.678;2023-11-22T10:15:21;10.75;;;6.63;;
80732;SDS011;70130;44.534;18.678;2023-11-22T10:17:55;16.23;;;8.35;;
80732;SDS011;70130;44.534;18.678;2023-11-22T10:20:23;11.50;;;6.78;;
80732;SDS011;70130;44.534;18.678;2023-11-22T10:23:15;8.48;;;4.57;;
80732;SDS011;70130;44.534;18.678;2023-11-22T10:25:54;9.85;;;5.25;;
80732;SDS011;70130;44.534;18.678;2023-11-22T10:28:21;11.15;;;6.00;;
80732;SDS011;70130;44.534;18.678;2023-11-22T10:30:51;8.63;;;5.13;;
80732;SDS011;70130;44.534;18.678;2023-11-22T10:33:17;10.40;;;5.57;;
80732;SDS011;70130;44.534;18.678;2023-11-22T10:35:47;11.38;;;5.85;;
80732;SDS011;70130;44.534;18.678;2023-11-22T10:38:14;12.88;;;5.80;;
80732;SDS011;70130;44.534;18.678;2023-11-22T10:40:42;8.70;;;4.75;;
80732;SDS011;70130;44.534;18.678;2023-11-22T10:43:11;7.38;;;3.85;;
80732;SDS011;70130;44.534;18.678;2023-11-22T10:45:38;10.55;;;5.40;;
80732;SDS011;70130;44.534;18.678;2023-11-22T10:48:04;9.98;;;5.70;;
80732;SDS011;70130;44.534;18.678;2023-11-22T10:50:34;11.57;;;5.30;;
80732;SDS011;70130;44.534;18.678;2023-11-22T10:52:59;17.63;;;8.05;;
80732;SDS011;70130;44.534;18.678;2023-11-22T10:55:31;8.15;;;4.93;;
80732;SDS011;70130;44.534;18.678;2023-11-22T10:58:04;9.25;;;5.45;;
80732;SDS011;70130;44.534;18.678;2023-11-22T11:00:32;5.65;;;3.42;;
80732;SDS011;70130;44.534;18.678;2023-11-22T11:02:59;8.48;;;4.30;;
80732;SDS011;70130;44.534;18.678;2023-11-22T11:05:28;11.90;;;6.30;;
80732;SDS011;70130;44.534;18.678;2023-11-22T11:08:06;11.90;;;6.05;;
80732;SDS011;70130;44.534;18.678;2023-11-22T11:10:43;13.50;;;5.78;;
80732;SDS011;70130;44.534;18.678;2023-11-22T11:13:11;9.10;;;5.20;;
80732;SDS011;70130;44.534;18.678;2023-11-22T11:15:40;9.45;;;5.85;;
80732;SDS011;70130;44.534;18.678;2023-11-22T11:18:09;16.75;;;7.57;;
80732;SDS011;70130;44.534;18.678;2023-11-22T11:20:50;9.32;;;5.40;;
80732;SDS011;70130;44.534;18.678;2023-11-22T11:23:19;13.60;;;6.18;;
80732;SDS011;70130;44.534;18.678;2023-11-22T11:25:48;11.52;;;5.93;;
80732;SDS011;70130;44.534;18.678;2023-11-22T11:28:15;12.95;;;6.85;;
80732;SDS011;70130;44.534;18.678;2023-11-22T11:30:45;16.10;;;7.35;;
80732;SDS011;70130;44.534;18.678;2023-11-22T11:33:14;10.50;;;5.78;;
80732;SDS011;70130;44.534;18.678;2023-11-22T11:35:49;9.98;;;5.30;;
80732;SDS011;70130;44.534;18.678;2023-11-22T11:38:16;10.38;;;6.15;;
80732;SDS011;70130;44.534;18.678;2023-11-22T11:40:51;12.10;;;7.22;;
80732;SDS011;70130;44.534;18.678;2023-11-22T11:46:11;9.18;;;6.03;;
80732;SDS011;70130;44.534;18.678;2023-11-22T11:48:44;13.80;;;7.03;;
80732;SDS011;70130;44.534;18.678;2023-11-22T11:51:16;15.65;;;8.85;;
80732;SDS011;70130;44.534;18.678;2023-11-22T11:53:46;11.00;;;4.85;;
80732;SDS011;70130;44.534;18.678;2023-11-22T11:56:12;10.15;;;5.30;;
80732;SDS011;70130;44.534;18.678;2023-11-22T11:58:40;12.25;;;5.63;;
80732;SDS011;70130;44.534;18.678;2023-11-22T12:01:07;13.73;;;5.80;;
80732;SDS011;70130;44.534;18.678;2023-11-22T12:03:33;11.88;;;6.75;;
80732;SDS011;70130;44.534;18.678;2023-11-22T12:05:59;11.13;;;6.03;;
80732;SDS011;70130;44.534;18.678;2023-11-22T12:08:25;13.93;;;6.40;;
80732;SDS011;70130;44.534;18.678;2023-11-22T12:10:55;11.57;;;6.25;;
80732;SDS011;70130;44.534;18.678;2023-11-22T12:13:21;9.85;;;6.07;;
80732;SDS011;70130;44.534;18.678;2023-11-22T12:15:47;10.65;;;5.85;;
80732;SDS011;70130;44.534;18.678;2023-11-22T12:18:13;12.30;;;6.45;;
80732;SDS011;70130;44.534;18.678;2023-11-22T12:20:39;15.25;;;7.40;;
80732;SDS011;70130;44.534;18.678;2023-11-22T12:23:04;13.63;;;7.20;;
80732;SDS011;70130;44.534;18.678;2023-11-22T12:25:32;11.52;;;7.03;;
80732;SDS011;70130;44.534;18.678;2023-11-22T12:27:57;12.88;;;6.75;;
80732;SDS011;70130;44.534;18.678;2023-11-22T12:30:33;13.65;;;6.80;;
80732;SDS011;70130;44.534;18.678;2023-11-22T12:33:07;13.27;;;6.25;;
80732;SDS011;70130;44.534;18.678;2023-11-22T12:35:34;13.52;;;7.03;;
80732;SDS011;70130;44.534;18.678;2023-11-22T12:38:01;14.85;;;8.02;;
80732;SDS011;70130;44.534;18.678;2023-11-22T12:40:28;17.17;;;8.02;;
80732;SDS011;70130;44.534;18.678;2023-11-22T12:42:58;17.42;;;8.10;;
80732;SDS011;70130;44.534;18.678;2023-11-22T12:45:26;14.85;;;7.78;;
80732;SDS011;70130;44.534;18.678;2023-11-22T12:47:56;17.80;;;8.82;;
80732;SDS011;70130;44.534;18.678;2023-11-22T12:50:32;15.75;;;8.45;;
80732;SDS011;70130;44.534;18.678;2023-11-22T12:53:08;14.35;;;7.57;;
80732;SDS011;70130;44.534;18.678;2023-11-22T12:55:38;12.52;;;7.60;;
80732;SDS011;70130;44.534;18.678;2023-11-22T12:58:07;15.30;;;7.32;;
80732;SDS011;70130;44.534;18.678;2023-11-22T13:00:33;16.95;;;7.68;;
80732;SDS011;70130;44.534;18.678;2023-11-22T13:02:59;17.02;;;7.95;;
80732;SDS011;70130;44.534;18.678;2023-11-22T13:05:24;15.82;;;7.13;;
80732;SDS011;70130;44.534;18.678;2023-11-22T13:07:50;12.68;;;7.90;;
80732;SDS011;70130;44.534;18.678;2023-11-22T13:10:17;19.13;;;9.95;;
80732;SDS011;70130;44.534;18.678;2023-11-22T13:12:44;23.17;;;11.40;;
80732;SDS011;70130;44.534;18.678;2023-11-22T13:15:11;18.88;;;9.18;;
80732;SDS011;70130;44.534;18.678;2023-11-22T13:17:37;16.88;;;9.40;;
80732;SDS011;70130;44.534;18.678;2023-11-22T13:20:08;16.70;;;8.52;;
80732;SDS011;70130;44.534;18.678;2023-11-22T13:22:39;22.77;;;11.45;;
80732;SDS011;70130;44.534;18.678;2023-11-22T13:25:07;18.05;;;9.00;;
80732;SDS011;70130;44.534;18.678;2023-11-22T13:27:35;18.67;;;8.75;;
80732;SDS011;70130;44.534;18.678;2023-11-22T13:30:06;17.70;;;9.80;;
80732;SDS011;70130;44.534;18.678;2023-11-22T13:32:32;20.08;;;9.80;;
80732;SDS011;70130;44.534;18.678;2023-11-22T13:34:58;20.40;;;9.43;;
80732;SDS011;70130;44.534;18.678;2023-11-22T13:37:24;17.92;;;8.15;;
80732;SDS011;70130;44.534;18.678;2023-11-22T13:39:50;21.40;;;9.43;;
80732;SDS011;70130;44.534;18.678;2023-11-22T13:42:16;25.48;;;13.05;;
80732;SDS011;70130;44.534;18.678;2023-11-22T13:44:42;23.15;;;11.82;;
80732;SDS011;70130;44.534;18.678;2023-11-22T13:47:09;19.60;;;10.38;;
80732;SDS011;70130;44.534;18.678;2023-11-22T13:49:41;24.42;;;12.00;;
80732;SDS011;70130;44.534;18.678;2023-11-22T13:52:08;22.20;;;11.52;;
80732;SDS011;70130;44.534;18.678;2023-11-22T13:54:34;25.25;;;11.93;;
80732;SDS011;70130;44.534;18.678;2023-11-22T13:57:04;19.47;;;10.47;;
80732;SDS011;70130;44.534;18.678;2023-11-22T13:59:30;16.83;;;8.20;;
80732;SDS011;70130;44.534;18.678;2023-11-22T14:01:55;16.17;;;8.45;;
80732;SDS011;70130;44.534;18.678;2023-11-22T14:04:21;21.05;;;9.32;;
80732;SDS011;70130;44.534;18.678;2023-11-22T14:06:48;23.25;;;11.18;;
80732;SDS011;70130;44.534;18.678;2023-11-22T14:09:13;25.35;;;11.80;;
80732;SDS011;70130;44.534;18.678;2023-11-22T14:11:40;17.25;;;8.82;;
80732;SDS011;70130;44.534;18.678;2023-11-22T14:14:05;18.80;;;10.32;;
80732;SDS011;70130;44.534;18.678;2023-11-22T14:16:34;21.33;;;10.23;;
80732;SDS011;70130;44.534;18.678;2023-11-22T14:19:00;23.88;;;12.40;;
80732;SDS011;70130;44.534;18.678;2023-11-22T14:21:25;21.30;;;12.23;;
80732;SDS011;70130;44.534;18.678;2023-11-22T14:23:51;20.92;;;11.25;;
80732;SDS011;70130;44.534;18.678;2023-11-22T14:26:18;21.48;;;10.73;;
80732;SDS011;70130;44.534;18.678;2023-11-22T14:28:44;27.17;;;12.40;;
80732;SDS011;70130;44.534;18.678;2023-11-22T14:31:09;24.67;;;13.00;;
80732;SDS011;70130;44.534;18.678;2023-11-22T14:33:35;25.77;;;12.82;;
80732;SDS011;70130;44.534;18.678;2023-11-22T14:36:01;18.80;;;10.70;;
80732;SDS011;70130;44.534;18.678;2023-11-22T14:38:27;21.85;;;12.27;;
80732;SDS011;70130;44.534;18.678;2023-11-22T14:40:52;23.40;;;12.70;;
80732;SDS011;70130;44.534;18.678;2023-11-22T14:43:21;24.23;;;12.88;;
80732;SDS011;70130;44.534;18.678;2023-11-22T14:45:46;21.73;;;11.57;;
80732;SDS011;70130;44.534;18.678;2023-11-22T14:48:15;23.23;;;12.30;;
80732;SDS011;70130;44.534;18.678;2023-11-22T14:50:41;24.83;;;13.35;;
80732;SDS011;70130;44.534;18.678;2023-11-22T14:53:09;25.35;;;13.05;;
80732;SDS011;70130;44.534;18.678;2023-11-22T14:55:35;23.40;;;13.05;;
80732;SDS011;70130;44.534;18.678;2023-11-22T14:58:08;23.80;;;12.55;;